Time;durP1;ratioP1;P1;durP2;ratioP2;P2;SDS_P1;SDS_P2;PMS_P1;PMS_P2;Temp;Humidity;BMP_temperature;BMP_pressure;BME280_temperature;BME280_humidity;BME280_pressure;Samples;Min_cycle;Max_cycle;Signal;HPM_P1;HPM_P2
2021/10/12 00:00:54;;;;;;;42.53;30.50;;;;;;;;;;5056259;28;20092;-51
2021/10/12 00:03:20;;;;;;;41.75;28.67;;;;;;;;;;5056228;28;20469;-49
2021/10/12 00:05:46;;;;;;;44.30;28.42;;;;;;;;;;5056105;28;20536;-49
2021/10/12 00:08:13;;;;;;;47.13;31.33;;;;;;;;;;5056204;28;20112;-49
2021/10/12 00:10:39;;;;;;;74.38;47.03;;;;;;;;;;5056176;28;20091;-49
2021/10/12 00:13:05;;;;;;;54.72;36.75;;;;;;;;;;5056044;28;20032;-49
2021/10/12 00:15:33;;;;;;;56.20;36.28;;;;;;;;;;5056136;28;20040;-48
2021/10/12 00:17:59;;;;;;;54.42;36.53;;;;;;;;;;5056091;28;20233;-49
2021/10/12 00:20:25;;;;;;;71.45;45.45;;;;;;;;;;5055702;28;20078;-51
2021/10/12 00:22:52;;;;;;;50.65;30.17;;;;;;;;;;5055799;28;20414;-50
2021/10/12 00:25:18;;;;;;;80.82;46.50;;;;;;;;;;5055784;28;20136;-49
2021/10/12 00:27:44;;;;;;;66.72;41.30;;;;;;;;;;5055703;28;20025;-53
2021/10/12 00:30:10;;;;;;;57.33;38.88;;;;;;;;;;5055757;28;20025;-51
2021/10/12 00:32:37;;;;;;;72.07;46.92;;;;;;;;;;5055691;28;20025;-50
2021/10/12 00:35:03;;;;;;;89.55;58.22;;;;;;;;;;5055412;28;20423;-49
2021/10/12 00:37:29;;;;;;;66.70;41.65;;;;;;;;;;5055703;28;20036;-48
2021/10/12 00:39:55;;;;;;;61.55;39.05;;;;;;;;;;5055607;28;20501;-49
2021/10/12 00:42:22;;;;;;;49.47;34.00;;;;;;;;;;5055422;28;20025;-49
2021/10/12 00:44:48;;;;;;;56.33;37.20;;;;;;;;;;5055472;28;20028;-57
2021/10/12 00:47:14;;;;;;;54.22;36.88;;;;;;;;;;5055677;28;20381;-49
2021/10/12 00:49:40;;;;;;;46.80;33.08;;;;;;;;;;5055478;28;20021;-48
2021/10/12 00:52:06;;;;;;;47.22;31.30;;;;;;;;;;5055352;28;20028;-48
2021/10/12 00:54:32;;;;;;;44.90;31.90;;;;;;;;;;5055228;28;20591;-50
2021/10/12 00:56:58;;;;;;;42.53;30.08;;;;;;;;;;5055145;28;20036;-49
2021/10/12 00:59:24;;;;;;;49.72;32.80;;;;;;;;;;5054909;28;20025;-49
2021/10/12 01:01:53;;;;;;;52.70;36.17;;;;;;;;;;5054460;28;20174;-50
2021/10/12 01:04:19;;;;;;;46.38;31.23;;;;;;;;;;5055038;28;20483;-49
2021/10/12 01:06:45;;;;;;;51.67;35.33;;;;;;;;;;5054974;28;20083;-49
2021/10/12 01:09:11;;;;;;;61.33;41.33;;;;;;;;;;5055052;28;20028;-57
2021/10/12 01:11:37;;;;;;;65.15;43.10;;;;;;;;;;5054992;28;20385;-51
2021/10/12 01:14:04;;;;;;;50.45;35.22;;;;;;;;;;5055415;28;20021;-48
2021/10/12 01:16:30;;;;;;;51.63;34.40;;;;;;;;;;5054808;28;20025;-55
2021/10/12 01:18:57;;;;;;;54.65;37.10;;;;;;;;;;5054750;28;20028;-50
2021/10/12 01:21:24;;;;;;;54.85;36.13;;;;;;;;;;5054924;28;20028;-49
2021/10/12 01:23:50;;;;;;;54.83;35.42;;;;;;;;;;5054698;28;20045;-49
2021/10/12 01:26:16;;;;;;;56.80;38.88;;;;;;;;;;5054774;28;20024;-50
2021/10/12 01:28:44;;;;;;;56.95;36.67;;;;;;;;;;5054726;28;20036;-48
2021/10/12 01:31:13;;;;;;;57.83;36.97;;;;;;;;;;5054859;28;20035;-48
2021/10/12 01:33:39;;;;;;;52.65;36.75;;;;;;;;;;5054813;28;20465;-50
2021/10/12 01:36:05;;;;;;;56.20;39.13;;;;;;;;;;5054475;28;20033;-50
2021/10/12 01:38:32;;;;;;;53.40;35.70;;;;;;;;;;5054789;28;20025;-49
2021/10/12 01:40:58;;;;;;;53.83;36.05;;;;;;;;;;5054530;28;20013;-49
2021/10/12 01:43:24;;;;;;;55.70;37.47;;;;;;;;;;5054715;28;20033;-49
2021/10/12 01:45:50;;;;;;;54.67;35.97;;;;;;;;;;5054692;28;20028;-49
2021/10/12 01:48:19;;;;;;;52.08;35.42;;;;;;;;;;5054608;28;20156;-49
2021/10/12 01:50:46;;;;;;;51.17;37.20;;;;;;;;;;5054235;28;20025;-49
2021/10/12 01:53:12;;;;;;;59.13;39.47;;;;;;;;;;5054162;28;20060;-49
2021/10/12 01:55:38;;;;;;;65.70;43.17;;;;;;;;;;5054042;28;20494;-48
2021/10/12 01:58:04;;;;;;;59.00;39.55;;;;;;;;;;5053935;28;20063;-50
2021/10/12 02:00:30;;;;;;;54.75;36.50;;;;;;;;;;5054144;28;20017;-48
2021/10/12 02:02:58;;;;;;;58.97;39.00;;;;;;;;;;5053987;28;20032;-49
2021/10/12 02:05:25;;;;;;;59.63;39.25;;;;;;;;;;5053823;28;20036;-48
2021/10/12 02:07:51;;;;;;;61.20;41.30;;;;;;;;;;5053909;28;20025;-48
2021/10/12 02:10:19;;;;;;;56.80;37.72;;;;;;;;;;5054094;28;20032;-48
2021/10/12 02:12:48;;;;;;;55.72;36.92;;;;;;;;;;5053728;28;20511;-49
2021/10/12 02:15:15;;;;;;;55.50;37.83;;;;;;;;;;5053987;28;20051;-48
2021/10/12 02:17:41;;;;;;;61.72;41.63;;;;;;;;;;5053846;28;20393;-49
2021/10/12 02:20:08;;;;;;;58.30;38.65;;;;;;;;;;5053745;28;20049;-49
2021/10/12 02:22:34;;;;;;;54.10;38.13;;;;;;;;;;5053834;28;20075;-48
2021/10/12 02:25:00;;;;;;;56.63;37.30;;;;;;;;;;5053642;28;20128;-52
2021/10/12 02:27:27;;;;;;;59.45;39.70;;;;;;;;;;5053598;28;20024;-49
2021/10/12 02:29:53;;;;;;;51.90;35.17;;;;;;;;;;5053800;28;20548;-49
2021/10/12 02:32:19;;;;;;;50.05;35.33;;;;;;;;;;5053690;28;20064;-48
2021/10/12 02:34:46;;;;;;;49.55;33.67;;;;;;;;;;5053367;28;20111;-48
2021/10/12 02:37:12;;;;;;;47.55;34.10;;;;;;;;;;5053561;28;20042;-48
2021/10/12 02:39:38;;;;;;;53.22;35.00;;;;;;;;;;5053523;28;20100;-48
2021/10/12 02:42:04;;;;;;;52.55;36.70;;;;;;;;;;5053610;28;20126;-48
2021/10/12 02:44:30;;;;;;;52.17;36.30;;;;;;;;;;5053714;28;20390;-49
2021/10/12 02:46:56;;;;;;;59.00;37.92;;;;;;;;;;5053540;28;20021;-48
2021/10/12 02:49:23;;;;;;;56.08;37.17;;;;;;;;;;5053270;28;20021;-48
2021/10/12 02:51:49;;;;;;;51.30;35.70;;;;;;;;;;5053519;28;20536;-49
2021/10/12 02:54:15;;;;;;;63.13;39.05;;;;;;;;;;5053382;28;20035;-49
2021/10/12 02:56:41;;;;;;;50.72;35.78;;;;;;;;;;5053374;28;20121;-54
2021/10/12 02:59:07;;;;;;;56.55;35.60;;;;;;;;;;5053307;28;20035;-48
2021/10/12 03:01:33;;;;;;;51.85;35.10;;;;;;;;;;5053366;28;20029;-47
2021/10/12 03:03:59;;;;;;;50.65;33.33;;;;;;;;;;5053446;28;20051;-49
2021/10/12 03:06:25;;;;;;;52.78;37.20;;;;;;;;;;5053046;28;20036;-50
2021/10/12 03:08:54;;;;;;;52.65;35.53;;;;;;;;;;5053193;28;20477;-51
2021/10/12 03:11:20;;;;;;;55.90;37.30;;;;;;;;;;5053347;28;20150;-49
2021/10/12 03:13:46;;;;;;;47.90;31.33;;;;;;;;;;5053229;28;20020;-58
2021/10/12 03:16:12;;;;;;;52.13;34.63;;;;;;;;;;5053501;28;20369;-58
2021/10/12 03:18:38;;;;;;;44.92;31.00;;;;;;;;;;5053262;28;20116;-56
2021/10/12 03:21:05;;;;;;;41.60;28.98;;;;;;;;;;5052943;28;20559;-54
2021/10/12 03:23:31;;;;;;;43.03;30.17;;;;;;;;;;5053517;28;20037;-57
2021/10/12 03:26:04;;;;;;;45.80;32.00;;;;;;;;;;5057080;28;20104;-56
2021/10/12 03:28:30;;;;;;;43.75;29.00;;;;;;;;;;5057178;28;20032;-56
2021/10/12 03:30:56;;;;;;;43.05;29.48;;;;;;;;;;5057250;28;20057;-57
2021/10/12 03:33:22;;;;;;;48.33;29.75;;;;;;;;;;5057195;28;20104;-50
2021/10/12 03:35:58;;;;;;;38.58;28.42;;;;;;;;;;5056821;28;20079;-56
2021/10/12 03:38:25;;;;;;;41.72;28.13;;;;;;;;;;5056833;28;20566;-56
2021/10/12 03:40:51;;;;;;;48.10;29.92;;;;;;;;;;5056912;28;20469;-56
2021/10/12 03:43:18;;;;;;;47.95;29.80;;;;;;;;;;5056657;28;20413;-57
2021/10/12 03:45:44;;;;;;;44.38;29.85;;;;;;;;;;5056964;28;20108;-55
2021/10/12 03:48:12;;;;;;;61.15;34.70;;;;;;;;;;5056598;28;20473;-51
2021/10/12 03:50:39;;;;;;;43.58;29.92;;;;;;;;;;5056662;28;20508;-52
2021/10/12 03:53:05;;;;;;;47.58;29.25;;;;;;;;;;5056637;28;20021;-49
2021/10/12 03:55:31;;;;;;;43.60;28.58;;;;;;;;;;5056576;28;20021;-50
2021/10/12 03:57:57;;;;;;;44.83;28.92;;;;;;;;;;5056366;28;20362;-52
2021/10/12 04:00:23;;;;;;;45.00;29.58;;;;;;;;;;5056482;28;20052;-52
2021/10/12 04:02:49;;;;;;;44.92;31.30;;;;;;;;;;5056346;28;20481;-49
2021/10/12 04:05:15;;;;;;;45.85;29.20;;;;;;;;;;5056236;28;20076;-49
2021/10/12 04:07:42;;;;;;;39.05;27.20;;;;;;;;;;5056523;28;20141;-54
2021/10/12 04:10:08;;;;;;;47.22;31.65;;;;;;;;;;5056333;28;20017;-52
2021/10/12 04:12:34;;;;;;;46.40;30.65;;;;;;;;;;5056363;28;20103;-54
2021/10/12 04:15:00;;;;;;;42.75;30.08;;;;;;;;;;5056308;28;20021;-52
2021/10/12 04:17:26;;;;;;;39.10;27.63;;;;;;;;;;5056222;28;20508;-56
2021/10/12 04:19:52;;;;;;;39.97;26.92;;;;;;;;;;5056226;28;20044;-50
2021/10/12 04:22:18;;;;;;;41.17;27.27;;;;;;;;;;5056162;28;20017;-54
2021/10/12 04:24:45;;;;;;;39.28;27.67;;;;;;;;;;5056075;28;20055;-50
2021/10/12 04:27:11;;;;;;;42.03;28.13;;;;;;;;;;5055955;28;20029;-54
2021/10/12 04:29:37;;;;;;;39.55;27.73;;;;;;;;;;5054771;28;20033;-56
2021/10/12 04:32:04;;;;;;;44.83;30.33;;;;;;;;;;5055754;28;20121;-58
2021/10/12 04:34:30;;;;;;;42.28;28.88;;;;;;;;;;5055631;28;20033;-54
2021/10/12 04:36:57;;;;;;;41.85;29.15;;;;;;;;;;5055859;28;20086;-49
2021/10/12 04:39:23;;;;;;;41.95;29.83;;;;;;;;;;5055723;28;20032;-55
2021/10/12 04:41:49;;;;;;;40.40;26.42;;;;;;;;;;5055795;28;20025;-53
2021/10/12 04:44:15;;;;;;;40.55;27.05;;;;;;;;;;5055789;28;20037;-55
2021/10/12 04:46:42;;;;;;;44.95;29.83;;;;;;;;;;5055834;28;20134;-52
2021/10/12 04:49:08;;;;;;;38.35;27.83;;;;;;;;;;5055635;28;20484;-54
2021/10/12 04:51:34;;;;;;;47.08;31.23;;;;;;;;;;5055620;28;20028;-56
2021/10/12 04:54:02;;;;;;;40.15;27.98;;;;;;;;;;5055644;28;20104;-56
2021/10/12 04:56:28;;;;;;;43.08;29.65;;;;;;;;;;5055297;28;20032;-55
2021/10/12 04:58:54;;;;;;;44.47;29.95;;;;;;;;;;5055439;28;20505;-51
2021/10/12 05:01:21;;;;;;;44.25;29.83;;;;;;;;;;5054680;28;20017;-55
2021/10/12 05:03:47;;;;;;;50.00;31.80;;;;;;;;;;5055607;28;20057;-58
2021/10/12 05:06:13;;;;;;;50.83;33.70;;;;;;;;;;5055018;28;20411;-57
2021/10/12 05:08:39;;;;;;;50.40;32.80;;;;;;;;;;5055190;28;20037;-58
2021/10/12 05:11:05;;;;;;;49.63;34.03;;;;;;;;;;5055230;28;20033;-52
2021/10/12 05:13:33;;;;;;;53.40;35.00;;;;;;;;;;5055382;28;20432;-58
2021/10/12 05:16:03;;;;;;;55.92;37.83;;;;;;;;;;5055059;28;20507;-50
2021/10/12 05:18:32;;;;;;;50.70;32.80;;;;;;;;;;5055124;28;20080;-50
2021/10/12 05:20:58;;;;;;;57.40;35.97;;;;;;;;;;5055025;28;20105;-48
2021/10/12 05:23:24;;;;;;;55.83;37.88;;;;;;;;;;5054786;28;20424;-48
2021/10/12 05:25:51;;;;;;;59.50;38.20;;;;;;;;;;5054976;28;20025;-49
2021/10/12 05:28:18;;;;;;;56.63;37.60;;;;;;;;;;5054650;28;20029;-50
2021/10/12 05:30:44;;;;;;;60.22;39.63;;;;;;;;;;5054840;28;20087;-49
2021/10/12 05:33:20;;;;;;;63.20;41.40;;;;;;;;;;5054762;28;20025;-51
2021/10/12 05:35:49;;;;;;;71.10;46.50;;;;;;;;;;5054504;28;20033;-51
2021/10/12 05:38:16;;;;;;;105.97;64.70;;;;;;;;;;5054470;28;20048;-50
2021/10/12 05:40:43;;;;;;;60.63;37.92;;;;;;;;;;5054432;28;20025;-51
2021/10/12 05:43:09;;;;;;;62.47;42.67;;;;;;;;;;5054504;28;20445;-51
2021/10/12 05:45:36;;;;;;;69.38;43.83;;;;;;;;;;5054490;28;20029;-49
2021/10/12 05:48:06;;;;;;;53.53;34.35;;;;;;;;;;5053878;28;20519;-47
2021/10/12 05:50:33;;;;;;;50.83;33.73;;;;;;;;;;5054431;28;20033;-48
2021/10/12 05:55:52;;;;;;;45.55;30.48;;;;;;;;;;5054249;28;20024;-52
2021/10/12 06:00:53;;;;;;;43.75;29.55;;;;;;;;;;5054358;28;20029;-48
2021/10/12 06:03:20;;;;;;;48.95;34.33;;;;;;;;;;5054134;28;20033;-49
2021/10/12 06:05:46;;;;;;;49.67;33.17;;;;;;;;;;5053784;28;20032;-54
2021/10/12 06:08:12;;;;;;;53.47;35.70;;;;;;;;;;5054043;28;20025;-55
2021/10/12 06:10:41;;;;;;;48.75;33.10;;;;;;;;;;5053870;28;20055;-47
2021/10/12 06:13:11;;;;;;;47.50;32.03;;;;;;;;;;5053970;28;20017;-49
2021/10/12 06:15:37;;;;;;;42.97;30.63;;;;;;;;;;5053973;28;20119;-50
2021/10/12 06:18:04;;;;;;;57.05;36.55;;;;;;;;;;5053725;28;20037;-50
2021/10/12 06:20:30;;;;;;;57.78;34.83;;;;;;;;;;5053778;28;20024;-46
2021/10/12 06:22:56;;;;;;;53.92;34.15;;;;;;;;;;5053679;28;20493;-53
2021/10/12 06:25:22;;;;;;;62.90;39.45;;;;;;;;;;5053674;28;20049;-47
2021/10/12 06:27:48;;;;;;;53.75;35.15;;;;;;;;;;5053801;28;20021;-52
2021/10/12 06:30:17;;;;;;;56.72;36.15;;;;;;;;;;5053770;28;20024;-49
2021/10/12 06:32:43;;;;;;;62.20;35.70;;;;;;;;;;5054007;28;20039;-47
2021/10/12 06:35:09;;;;;;;54.28;33.33;;;;;;;;;;5053494;28;20028;-49
2021/10/12 06:37:35;;;;;;;67.25;38.22;;;;;;;;;;5053559;28;20041;-48
2021/10/12 06:40:01;;;;;;;41.50;27.88;;;;;;;;;;5053763;28;20052;-47
2021/10/12 06:42:27;;;;;;;51.25;33.85;;;;;;;;;;5053518;28;20349;-52
2021/10/12 06:44:56;;;;;;;55.33;34.22;;;;;;;;;;5053680;28;20021;-47
2021/10/12 06:47:22;;;;;;;45.47;30.05;;;;;;;;;;5053441;28;20100;-53
2021/10/12 06:49:48;;;;;;;47.42;31.50;;;;;;;;;;5053706;28;20051;-53
2021/10/12 06:52:14;;;;;;;59.10;36.58;;;;;;;;;;5053333;28;20075;-52
2021/10/12 06:54:40;;;;;;;45.03;29.08;;;;;;;;;;5053440;28;20100;-53
2021/10/12 06:57:11;;;;;;;50.83;31.60;;;;;;;;;;5053392;28;20120;-48
2021/10/12 06:59:37;;;;;;;46.45;29.10;;;;;;;;;;5052562;28;20017;-47
2021/10/12 07:02:03;;;;;;;43.88;28.77;;;;;;;;;;5052255;28;20029;-53
2021/10/12 07:04:30;;;;;;;45.47;27.42;;;;;;;;;;5053184;28;20025;-53
2021/10/12 07:06:56;;;;;;;50.40;27.73;;;;;;;;;;5053199;28;20029;-47
2021/10/12 07:09:24;;;;;;;40.38;26.75;;;;;;;;;;5053361;28;20021;-47
2021/10/12 07:11:50;;;;;;;40.78;25.73;;;;;;;;;;5053434;28;20036;-46
2021/10/12 07:14:16;;;;;;;40.67;26.95;;;;;;;;;;5053689;28;20025;-51
2021/10/12 07:16:42;;;;;;;37.53;26.17;;;;;;;;;;5053272;28;20388;-56
2021/10/12 07:19:08;;;;;;;37.08;24.20;;;;;;;;;;5053237;28;20025;-51
2021/10/12 07:21:34;;;;;;;40.17;27.48;;;;;;;;;;5052901;28;20025;-57
2021/10/12 07:24:01;;;;;;;46.60;28.13;;;;;;;;;;5053067;28;20067;-51
2021/10/12 07:26:27;;;;;;;41.58;28.35;;;;;;;;;;5053077;28;20028;-50
2021/10/12 07:28:56;;;;;;;39.38;24.92;;;;;;;;;;5053200;28;20029;-50
2021/10/12 07:31:22;;;;;;;33.10;23.55;;;;;;;;;;5052936;28;20017;-52
2021/10/12 07:33:48;;;;;;;40.10;26.17;;;;;;;;;;5052923;28;20035;-53
2021/10/12 07:36:14;;;;;;;49.20;28.98;;;;;;;;;;5052618;28;20029;-52
2021/10/12 07:38:41;;;;;;;43.80;27.45;;;;;;;;;;5052882;28;20098;-51
2021/10/12 07:41:09;;;;;;;46.58;30.08;;;;;;;;;;5052945;28;20154;-51
2021/10/12 07:43:35;;;;;;;51.22;32.17;;;;;;;;;;5053012;28;20021;-51
2021/10/12 07:46:03;;;;;;;46.70;28.45;;;;;;;;;;5052904;28;20045;-52
2021/10/12 07:48:29;;;;;;;59.65;34.13;;;;;;;;;;5052695;28;20488;-51
2021/10/12 07:50:55;;;;;;;58.22;31.35;;;;;;;;;;5052683;28;20469;-51
2021/10/12 07:53:21;;;;;;;56.38;33.00;;;;;;;;;;5052793;28;20044;-51
2021/10/12 07:55:51;;;;;;;55.67;32.90;;;;;;;;;;5052893;28;20025;-51
2021/10/12 07:58:17;;;;;;;48.72;30.58;;;;;;;;;;5052724;28;20404;-50
2021/10/12 08:00:43;;;;;;;72.72;41.53;;;;;;;;;;5052763;28;20021;-51
2021/10/12 08:03:13;;;;;;;60.72;34.90;;;;;;;;;;5052712;28;20053;-50
2021/10/12 08:05:39;;;;;;;54.83;34.53;;;;;;;;;;5052821;28;20021;-51
2021/10/12 08:08:05;;;;;;;47.10;29.55;;;;;;;;;;5052740;28;20091;-50
2021/10/12 08:10:33;;;;;;;56.38;30.85;;;;;;;;;;5055010;28;20449;-51
2021/10/12 08:13:05;;;;;;;60.80;35.80;;;;;;;;;;5056253;28;20526;-51
2021/10/12 08:15:32;;;;;;;60.25;36.92;;;;;;;;;;5056345;28;20029;-50
2021/10/12 08:17:58;;;;;;;52.03;31.85;;;;;;;;;;5056036;28;20033;-51
2021/10/12 08:20:24;;;;;;;59.70;33.50;;;;;;;;;;5056038;28;20493;-51
2021/10/12 08:22:50;;;;;;;59.72;36.33;;;;;;;;;;5056190;28;20162;-52
2021/10/12 08:25:16;;;;;;;64.07;35.65;;;;;;;;;;5056112;28;20400;-52
2021/10/12 08:27:43;;;;;;;53.80;32.88;;;;;;;;;;5056052;28;20044;-50
2021/10/12 08:30:10;;;;;;;69.90;39.63;;;;;;;;;;5055767;28;20017;-53
2021/10/12 08:32:36;;;;;;;58.20;34.42;;;;;;;;;;5055881;28;20025;-52
2021/10/12 08:35:03;;;;;;;52.10;33.85;;;;;;;;;;5055920;28;20474;-52
2021/10/12 08:37:29;;;;;;;54.72;33.03;;;;;;;;;;5055495;28;20049;-51
2021/10/12 08:39:55;;;;;;;65.95;40.53;;;;;;;;;;5055820;28;20017;-52
2021/10/12 08:42:32;;;;;;;81.25;48.60;;;;;;;;;;5055553;28;20025;-53
2021/10/12 08:45:16;;;;;;;72.85;42.65;;;;;;;;;;5055761;28;20025;-55
2021/10/12 08:47:43;;;;;;;105.25;57.03;;;;;;;;;;5055554;28;20388;-55
2021/10/12 08:50:11;;;;;;;92.45;51.13;;;;;;;;;;5055817;28;20029;-57
2021/10/12 08:52:37;;;;;;;146.88;79.25;;;;;;;;;;5055598;28;20473;-51
2021/10/12 08:55:03;;;;;;;87.63;47.45;;;;;;;;;;5055709;28;20032;-51
2021/10/12 08:57:31;;;;;;;210.10;109.28;;;;;;;;;;5055389;28;20029;-51
2021/10/12 08:59:57;;;;;;;187.80;99.95;;;;;;;;;;5055662;28;20464;-50
2021/10/12 09:02:25;;;;;;;109.22;65.22;;;;;;;;;;5055536;28;20024;-51
2021/10/12 09:04:51;;;;;;;121.15;67.95;;;;;;;;;;5055226;28;20064;-50
2021/10/12 09:07:28;;;;;;;69.80;41.85;;;;;;;;;;5055113;28;20032;-51
2021/10/12 09:09:56;;;;;;;60.58;36.75;;;;;;;;;;5055466;28;20025;-50
2021/10/12 09:12:41;;;;;;;51.47;33.15;;;;;;;;;;5055141;28;20378;-51
2021/10/12 09:15:07;;;;;;;68.03;39.78;;;;;;;;;;5055044;28;20032;-51
2021/10/12 09:17:37;;;;;;;37.63;25.52;;;;;;;;;;5055388;28;20033;-51
2021/10/12 09:20:12;;;;;;;50.33;31.65;;;;;;;;;;5055161;28;20025;-51
2021/10/12 09:22:38;;;;;;;53.75;33.53;;;;;;;;;;5053909;28;20096;-51
2021/10/12 09:25:08;;;;;;;51.05;34.88;;;;;;;;;;5054782;28;20103;-51
2021/10/12 09:27:55;;;;;;;49.35;30.35;;;;;;;;;;5054774;28;20021;-51
2021/10/12 09:30:28;;;;;;;57.13;37.05;;;;;;;;;;5054998;28;20033;-51
2021/10/12 09:33:01;;;;;;;46.92;30.77;;;;;;;;;;5054718;28;20036;-51
2021/10/12 09:35:28;;;;;;;54.20;35.20;;;;;;;;;;5054717;28;20029;-51
2021/10/12 09:38:11;;;;;;;59.38;39.13;;;;;;;;;;5055022;28;20044;-53
2021/10/12 09:40:38;;;;;;;49.22;30.58;;;;;;;;;;5054798;28;20480;-52
2021/10/12 09:43:04;;;;;;;49.45;32.72;;;;;;;;;;5054738;28;20017;-51
2021/10/12 09:45:41;;;;;;;48.05;33.03;;;;;;;;;;5054405;28;20025;-51
2021/10/12 09:48:27;;;;;;;55.95;37.45;;;;;;;;;;5054609;28;20032;-51
2021/10/12 09:51:12;;;;;;;57.00;37.30;;;;;;;;;;5054441;28;20050;-51
2021/10/12 09:53:39;;;;;;;43.53;27.88;;;;;;;;;;5054374;28;20472;-51
2021/10/12 09:56:05;;;;;;;38.63;27.25;;;;;;;;;;5054156;28;20025;-52
2021/10/12 09:58:33;;;;;;;43.55;26.23;;;;;;;;;;5054043;28;20029;-51
2021/10/12 10:01:00;;;;;;;38.30;26.42;;;;;;;;;;5054035;28;20036;-51
2021/10/12 10:03:28;;;;;;;36.60;26.35;;;;;;;;;;5053988;28;20028;-51
2021/10/12 10:05:55;;;;;;;41.03;29.38;;;;;;;;;;5054141;28;20025;-51
2021/10/12 10:08:22;;;;;;;42.45;30.08;;;;;;;;;;5054164;28;20100;-50
2021/10/12 10:10:48;;;;;;;56.45;37.88;;;;;;;;;;5054118;28;20043;-54
2021/10/12 10:13:21;;;;;;;60.17;39.53;;;;;;;;;;5053950;28;20025;-51
2021/10/12 10:15:47;;;;;;;39.50;27.30;;;;;;;;;;5054003;28;20032;-52
2021/10/12 10:18:14;;;;;;;46.95;29.15;;;;;;;;;;5053941;28;20150;-53
2021/10/12 10:20:40;;;;;;;50.60;30.42;;;;;;;;;;5054060;28;20021;-53
2021/10/12 10:23:06;;;;;;;45.42;30.60;;;;;;;;;;5053537;28;20037;-54
2021/10/12 10:25:40;;;;;;;39.88;25.65;;;;;;;;;;5054145;28;20090;-54
2021/10/12 10:28:19;;;;;;;40.42;25.40;;;;;;;;;;5053842;28;20507;-54
2021/10/12 10:30:52;;;;;;;109.30;49.08;;;;;;;;;;5053893;28;20021;-58
2021/10/12 10:33:27;;;;;;;57.08;33.50;;;;;;;;;;5053386;28;20036;-56
2021/10/12 10:36:00;;;;;;;58.65;38.28;;;;;;;;;;5053630;28;20083;-57
2021/10/12 10:38:26;;;;;;;37.58;24.02;;;;;;;;;;5053593;28;20040;-55
2021/10/12 10:41:05;;;;;;;37.20;23.60;;;;;;;;;;5053647;28;20028;-63
2021/10/12 10:43:50;;;;;;;31.05;21.70;;;;;;;;;;5053414;28;20025;-57
2021/10/12 10:46:31;;;;;;;29.88;20.63;;;;;;;;;;5053412;28;20083;-54
2021/10/12 10:49:06;;;;;;;33.35;21.73;;;;;;;;;;5053379;28;20029;-54
2021/10/12 10:51:56;;;;;;;29.58;19.48;;;;;;;;;;5053164;28;20384;-54
2021/10/12 10:54:37;;;;;;;29.38;22.10;;;;;;;;;;5048206;28;20389;-53
2021/10/12 10:57:11;;;;;;;27.65;18.83;;;;;;;;;;5053187;28;20028;-53
2021/10/12 10:59:37;;;;;;;24.15;16.92;;;;;;;;;;5053463;28;20100;-53
2021/10/12 11:02:03;;;;;;;26.75;17.85;;;;;;;;;;5053301;28;20025;-53
2021/10/12 11:04:42;;;;;;;33.95;21.15;;;;;;;;;;5053123;28;20029;-52
2021/10/12 11:07:08;;;;;;;33.70;21.98;;;;;;;;;;5053179;28;20025;-52
2021/10/12 11:09:44;;;;;;;82.32;40.88;;;;;;;;;;5053307;28;20013;-53
2021/10/12 11:12:17;;;;;;;50.20;25.38;;;;;;;;;;5053194;28;20056;-52
2021/10/12 11:14:43;;;;;;;67.32;37.42;;;;;;;;;;5053146;28;20032;-52
2021/10/12 11:17:10;;;;;;;67.55;36.78;;;;;;;;;;5052949;28;20037;-52
2021/10/12 11:19:54;;;;;;;37.25;17.08;;;;;;;;;;5053245;28;20075;-52
2021/10/12 11:22:21;;;;;;;34.10;22.42;;;;;;;;;;5051752;28;20025;-53
2021/10/12 11:24:47;;;;;;;30.40;19.00;;;;;;;;;;5052957;28;20052;-52
2021/10/12 11:27:14;;;;;;;27.42;17.80;;;;;;;;;;5052960;28;20045;-52
2021/10/12 11:29:44;;;;;;;24.52;15.23;;;;;;;;;;5052884;28;20064;-52
2021/10/12 11:32:10;;;;;;;23.15;15.40;;;;;;;;;;5052993;28;20151;-52
2021/10/12 11:34:37;;;;;;;26.48;16.65;;;;;;;;;;5053145;28;20417;-52
2021/10/12 11:37:07;;;;;;;21.95;13.80;;;;;;;;;;5052804;28;20497;-52
2021/10/12 11:39:34;;;;;;;28.75;16.52;;;;;;;;;;5052952;28;20044;-52
2021/10/12 11:42:04;;;;;;;22.50;15.43;;;;;;;;;;5052822;28;20020;-52
2021/10/12 11:44:30;;;;;;;20.98;13.52;;;;;;;;;;5053570;28;20029;-53
2021/10/12 11:47:03;;;;;;;17.48;12.60;;;;;;;;;;5056702;28;20495;-53
2021/10/12 11:49:40;;;;;;;19.95;11.55;;;;;;;;;;5056772;28;20358;-52
2021/10/12 11:52:07;;;;;;;31.95;19.67;;;;;;;;;;5056677;28;20021;-52
2021/10/12 11:54:33;;;;;;;19.80;12.45;;;;;;;;;;5056926;28;20060;-52
2021/10/12 11:56:59;;;;;;;18.83;12.93;;;;;;;;;;5056654;28;20027;-52
2021/10/12 11:59:34;;;;;;;20.65;13.32;;;;;;;;;;5056599;28;20162;-52
2021/10/12 12:02:01;;;;;;;20.42;13.15;;;;;;;;;;5056964;28;20025;-52
2021/10/12 12:04:28;;;;;;;26.05;16.00;;;;;;;;;;5056545;28;20033;-53
2021/10/12 12:06:55;;;;;;;30.13;17.45;;;;;;;;;;5056470;28;20064;-52
2021/10/12 12:09:22;;;;;;;28.80;19.67;;;;;;;;;;5056849;28;20029;-52
2021/10/12 12:11:48;;;;;;;38.75;24.67;;;;;;;;;;5056610;28;20028;-52
2021/10/12 12:14:15;;;;;;;32.88;20.63;;;;;;;;;;5056588;28;20381;-52
2021/10/12 12:16:41;;;;;;;52.33;28.55;;;;;;;;;;5056397;28;20035;-52
2021/10/12 12:19:24;;;;;;;42.53;25.17;;;;;;;;;;5055962;28;20032;-53
2021/10/12 12:21:51;;;;;;;37.88;21.17;;;;;;;;;;5055896;28;20449;-51
2021/10/12 12:24:21;;;;;;;28.75;17.25;;;;;;;;;;5055858;28;20097;-51
2021/10/12 12:26:47;;;;;;;27.38;16.92;;;;;;;;;;5054654;28;20420;-52
2021/10/12 12:29:20;;;;;;;35.40;18.95;;;;;;;;;;5055728;28;20430;-51
2021/10/12 12:31:48;;;;;;;33.20;18.02;;;;;;;;;;5055672;28;20037;-52
2021/10/12 12:34:23;;;;;;;40.30;22.48;;;;;;;;;;5055553;28;20025;-53
2021/10/12 12:36:49;;;;;;;45.65;25.75;;;;;;;;;;5055515;28;20033;-53
2021/10/12 12:39:16;;;;;;;46.35;28.60;;;;;;;;;;5055768;28;20028;-51
2021/10/12 12:41:42;;;;;;;103.47;65.85;;;;;;;;;;5055673;28;20125;-51
2021/10/12 12:44:09;;;;;;;39.53;25.35;;;;;;;;;;5055590;28;20114;-52
2021/10/12 12:46:36;;;;;;;39.78;22.95;;;;;;;;;;5055524;28;20025;-53
2021/10/12 12:49:04;;;;;;;51.72;30.70;;;;;;;;;;5055461;28;20048;-52
2021/10/12 12:51:31;;;;;;;46.05;25.33;;;;;;;;;;5055113;28;20025;-51
2021/10/12 12:53:57;;;;;;;37.50;22.98;;;;;;;;;;5055434;28;20045;-54
2021/10/12 12:56:30;;;;;;;29.05;17.85;;;;;;;;;;5055504;28;20104;-52
2021/10/12 12:59:03;;;;;;;41.58;25.75;;;;;;;;;;5055235;28;20039;-53
2021/10/12 13:01:29;;;;;;;44.28;24.35;;;;;;;;;;5055230;28;20051;-51
2021/10/12 13:03:55;;;;;;;64.63;35.28;;;;;;;;;;5055202;28;20021;-50
2021/10/12 13:06:21;;;;;;;80.93;38.78;;;;;;;;;;5054864;28;20037;-50
2021/10/12 13:08:49;;;;;;;49.75;26.50;;;;;;;;;;5055059;28;20021;-52
2021/10/12 13:11:22;;;;;;;48.55;27.65;;;;;;;;;;5055383;28;20060;-51
2021/10/12 13:13:48;;;;;;;19.00;12.02;;;;;;;;;;5055077;28;20103;-53
2021/10/12 13:16:14;;;;;;;17.63;11.75;;;;;;;;;;5055016;28;20029;-51
2021/10/12 13:18:41;;;;;;;23.42;13.65;;;;;;;;;;5054833;28;20045;-51
2021/10/12 13:21:07;;;;;;;29.00;16.92;;;;;;;;;;5054888;28;20052;-53
2021/10/12 13:23:34;;;;;;;23.95;12.98;;;;;;;;;;5054593;28;20020;-50
2021/10/12 13:26:00;;;;;;;20.13;13.10;;;;;;;;;;5054920;28;20104;-51
2021/10/12 13:28:26;;;;;;;18.48;12.00;;;;;;;;;;5054910;28;20116;-51
2021/10/12 13:30:55;;;;;;;20.25;10.65;;;;;;;;;;5054850;28;20100;-52
2021/10/12 13:33:21;;;;;;;27.73;14.07;;;;;;;;;;5054661;28;20043;-52
2021/10/12 13:35:47;;;;;;;21.38;12.38;;;;;;;;;;5053701;28;20025;-53
2021/10/12 13:38:13;;;;;;;46.10;23.65;;;;;;;;;;5053829;28;20511;-52
2021/10/12 13:40:39;;;;;;;30.70;17.08;;;;;;;;;;5054018;28;20358;-53
2021/10/12 13:43:05;;;;;;;43.92;22.73;;;;;;;;;;5051340;28;20437;-53
2021/10/12 13:45:31;;;;;;;34.08;18.48;;;;;;;;;;5053953;28;20105;-52
2021/10/12 13:47:57;;;;;;;21.52;10.23;;;;;;;;;;5054283;28;20029;-53
2021/10/12 13:50:24;;;;;;;17.73;10.38;;;;;;;;;;5053525;28;20051;-53
2021/10/12 13:52:50;;;;;;;15.90;7.88;;;;;;;;;;5053688;28;20025;-53
2021/10/12 13:55:18;;;;;;;18.38;9.63;;;;;;;;;;5053787;28;20017;-52
2021/10/12 13:57:44;;;;;;;18.80;9.05;;;;;;;;;;5053706;28;20033;-52
2021/10/12 14:00:10;;;;;;;18.65;9.77;;;;;;;;;;5053709;28;20139;-52
2021/10/12 14:02:38;;;;;;;19.55;9.80;;;;;;;;;;5053722;28;20033;-53
2021/10/12 14:05:05;;;;;;;12.50;7.28;;;;;;;;;;5053313;28;20067;-53
2021/10/12 14:07:31;;;;;;;20.23;9.98;;;;;;;;;;5053240;28;20032;-52
2021/10/12 14:09:57;;;;;;;17.67;9.57;;;;;;;;;;5053499;28;20071;-53
2021/10/12 14:12:24;;;;;;;16.67;9.55;;;;;;;;;;5053456;28;20021;-52
2021/10/12 14:14:50;;;;;;;21.33;11.02;;;;;;;;;;5053447;28;20110;-53
2021/10/12 14:17:21;;;;;;;35.63;17.25;;;;;;;;;;5053400;28;20032;-52
2021/10/12 14:19:47;;;;;;;24.50;10.20;;;;;;;;;;5050447;28;20087;-54
2021/10/12 14:22:13;;;;;;;43.00;22.92;;;;;;;;;;5053177;28;20021;-54
2021/10/12 14:24:39;;;;;;;34.83;16.98;;;;;;;;;;5053149;28;20056;-55